createdAt,value
2023-04-09T00:01:16.384Z,43.80
2023-04-09T00:04:19.685Z,44.00
2023-04-09T00:07:22.975Z,44.40
2023-04-09T00:10:26.223Z,44.00
2023-04-09T00:13:39.002Z,44.00
2023-04-09T00:16:44.437Z,45.60
2023-04-09T00:19:47.685Z,44.60
2023-04-09T00:22:51.850Z,44.00
2023-04-09T00:25:55.368Z,45.40
2023-04-09T00:28:58.623Z,49.20
2023-04-09T00:32:03.380Z,48.00
2023-04-09T00:35:07.447Z,44.20
2023-04-09T00:38:11.160Z,46.00
2023-04-09T00:41:14.359Z,47.00
2023-04-09T00:44:17.607Z,46.00
2023-04-09T00:47:22.383Z,44.00
2023-04-09T00:50:26.370Z,42.00
2023-04-09T00:53:30.107Z,37.40
2023-04-09T00:56:35.322Z,40.80
2023-04-09T00:59:38.728Z,37.60
2023-04-09T01:02:44.584Z,40.00
2023-04-09T01:05:54.813Z,44.60
2023-04-09T01:09:04.327Z,43.00
2023-04-09T01:12:14.104Z,42.20
2023-04-09T01:15:22.318Z,42.40
2023-04-09T01:18:36.893Z,43.00
2023-04-09T01:21:42.988Z,43.40
2023-04-09T01:25:04.753Z,42.80
2023-04-09T01:28:20.197Z,44.20
2023-04-09T01:31:30.976Z,42.00
2023-04-09T01:34:35.146Z,43.80
2023-04-09T01:37:39.844Z,48.00
2023-04-09T01:40:44.116Z,46.00
2023-04-09T01:43:50.964Z,46.00
2023-04-09T01:46:56.958Z,46.40
2023-04-09T01:50:00.505Z,46.00
2023-04-09T01:53:03.948Z,46.40
2023-04-09T01:56:07.706Z,47.00
2023-04-09T01:59:12.881Z,46.60
2023-04-09T02:02:22.355Z,46.60
2023-04-09T02:05:29.366Z,46.80
2023-04-09T02:08:35.816Z,48.00
2023-04-09T02:11:41.585Z,47.00
2023-04-09T02:14:47.750Z,47.60
2023-04-09T02:17:51.381Z,48.50
2023-04-09T02:20:54.966Z,47.00
2023-04-09T02:23:58.335Z,47.60
2023-04-09T02:27:02.141Z,47.80
2023-04-09T02:30:08.128Z,47.60
2023-04-09T02:33:11.798Z,48.00
2023-04-09T02:36:15.286Z,46.40
2023-04-09T02:39:18.750Z,50.00
2023-04-09T02:42:22.073Z,49.60
2023-04-09T02:45:26.782Z,47.00
2023-04-09T02:48:30.644Z,48.00
2023-04-09T02:51:36.033Z,47.80
2023-04-09T02:54:39.414Z,46.50
2023-04-09T02:57:42.766Z,48.20
2023-04-09T03:00:47.815Z,50.00
2023-04-09T03:03:51.471Z,47.00
2023-04-09T03:06:54.836Z,45.67
2023-04-09T03:09:58.051Z,49.00
2023-04-09T03:13:01.922Z,48.60
2023-04-09T03:16:07.785Z,48.80
2023-04-09T03:19:11.130Z,48.00
2023-04-09T03:22:14.432Z,49.60
2023-04-09T03:25:19.777Z,47.00
2023-04-09T03:32:03.827Z,48.25
2023-04-09T03:35:07.691Z,48.20
2023-04-09T03:38:11.345Z,48.60
2023-04-09T03:41:14.713Z,48.00
2023-04-09T03:44:18.104Z,49.60
2023-04-09T03:47:40.477Z,48.00
2023-04-09T03:50:43.955Z,53.20
2023-04-09T03:53:50.750Z,56.00
2023-04-09T03:56:54.755Z,59.20
2023-04-09T04:00:00.470Z,49.00
2023-04-09T04:03:08.182Z,53.00
2023-04-09T04:06:35.614Z,51.00
2023-04-09T04:09:55.105Z,50.60
2023-04-09T04:12:58.561Z,52.40
2023-04-09T04:16:10.196Z,52.60
2023-04-09T04:19:17.784Z,51.00
2023-04-09T04:22:26.213Z,50.60
2023-04-09T04:25:34.294Z,49.60
2023-04-09T04:36:07.985Z,47.00
2023-04-09T04:39:21.714Z,50.00
2023-04-09T04:42:30.935Z,48.50
2023-04-09T04:45:37.531Z,49.00
2023-04-09T04:48:46.068Z,47.75
2023-04-09T04:51:50.716Z,46.00
2023-04-09T04:54:53.982Z,48.00
2023-04-09T04:57:59.867Z,48.25
2023-04-09T05:05:05.332Z,47.00
2023-04-09T05:08:16.015Z,46.00
2023-04-09T05:11:23.869Z,47.67
2023-04-09T05:18:09.422Z,46.33
2023-04-09T05:21:13.335Z,49.00
2023-04-09T05:24:20.593Z,48.00
2023-04-09T05:27:26.062Z,48.00
2023-04-09T05:34:19.189Z,48.00
2023-04-09T05:37:27.163Z,47.00
2023-04-09T05:40:32.563Z,49.00
2023-04-09T05:43:36.999Z,49.00
2023-04-09T05:46:40.294Z,47.50
2023-04-09T05:49:45.241Z,49.00
2023-04-09T05:52:51.678Z,47.80
2023-04-09T05:55:57.270Z,50.40
2023-04-09T06:02:37.339Z,45.00
2023-04-09T06:05:40.701Z,45.75
2023-04-09T06:08:45.121Z,46.00
2023-04-09T06:11:49.737Z,47.20
2023-04-09T06:14:52.933Z,45.80
2023-04-09T06:17:58.884Z,46.60
2023-04-09T06:21:03.706Z,45.00
2023-04-09T06:24:07.680Z,46.00
2023-04-09T06:27:12.327Z,44.75
2023-04-09T06:30:15.753Z,46.00
2023-04-09T06:33:19.043Z,46.00
2023-04-09T06:36:22.470Z,45.50
2023-04-09T06:39:25.883Z,45.00
2023-04-09T06:42:30.878Z,44.00
2023-04-09T06:45:44.168Z,43.60
2023-04-09T06:48:47.740Z,43.80
2023-04-09T06:51:52.204Z,45.00
2023-04-09T06:54:55.405Z,44.80
2023-04-09T06:58:00.056Z,45.00
2023-04-09T07:01:03.913Z,44.80
2023-04-09T07:04:07.519Z,44.20
2023-04-09T07:07:11.447Z,43.00
2023-04-09T07:10:14.919Z,44.00
2023-04-09T07:13:19.973Z,42.00
2023-04-09T07:16:23.618Z,41.25
2023-04-09T07:19:29.558Z,40.00
2023-04-09T07:22:32.857Z,39.00
2023-04-09T07:25:36.523Z,40.60
2023-04-09T07:32:18.645Z,38.33
2023-04-09T07:35:21.990Z,40.40
2023-04-09T07:38:26.160Z,39.20
2023-04-09T07:41:29.449Z,38.00
2023-04-09T07:44:36.499Z,38.80
2023-04-09T07:58:57.707Z,34.00
2023-04-09T08:02:01.392Z,33.80
2023-04-09T08:05:04.949Z,35.00
2023-04-09T08:08:08.294Z,32.00
2023-04-09T08:11:11.582Z,36.00
2023-04-09T08:14:17.497Z,35.50
2023-04-09T08:17:20.845Z,35.00
2023-04-09T08:20:24.321Z,33.00
2023-04-09T08:23:28.196Z,35.75
2023-04-09T08:26:31.569Z,34.40
2023-04-09T08:29:36.663Z,36.00
2023-04-09T08:32:40.148Z,30.20
2023-04-09T08:35:43.479Z,30.75
2023-04-09T08:38:47.677Z,31.40
2023-04-09T08:41:53.420Z,30.40
2023-04-09T08:44:58.329Z,29.00
2023-04-09T08:48:04.343Z,30.00
2023-04-09T08:51:07.710Z,32.00
2023-04-09T08:54:11.181Z,31.80
2023-04-09T08:57:14.475Z,31.40
2023-04-09T09:00:19.222Z,34.00
2023-04-09T09:03:22.829Z,29.25
2023-04-09T09:06:28.866Z,32.40
2023-04-09T09:09:32.189Z,31.40
2023-04-09T09:12:38.214Z,29.00
2023-04-09T09:15:43.237Z,28.40
2023-04-09T09:18:46.523Z,28.00
2023-04-09T09:21:56.767Z,27.60
2023-04-09T09:25:00.009Z,31.50
2023-04-09T09:28:09.410Z,28.80
2023-04-09T09:31:14.489Z,25.00
2023-04-09T09:34:18.306Z,25.00
2023-04-09T09:37:28.171Z,26.75
2023-04-09T09:40:31.609Z,24.00
2023-04-09T09:43:42.166Z,26.00
2023-04-09T09:46:47.007Z,24.40
2023-04-09T09:49:51.176Z,23.60
2023-04-09T09:53:01.551Z,28.50
2023-04-09T09:56:06.761Z,27.60
2023-04-09T09:59:17.342Z,30.00
2023-04-09T10:02:27.019Z,26.00
2023-04-09T10:05:32.278Z,21.00
2023-04-09T10:08:38.465Z,21.60
2023-04-09T10:11:45.695Z,21.50
2023-04-09T10:14:49.533Z,22.33
2023-04-09T10:17:54.140Z,22.80
2023-04-09T10:21:00.854Z,26.60
2023-04-09T10:24:06.258Z,23.00
2023-04-09T10:27:15.921Z,22.60
2023-04-09T10:30:36.750Z,24.00
2023-04-09T10:33:44.563Z,25.60
2023-04-09T10:36:53.047Z,21.80
2023-04-09T10:39:56.650Z,24.00
2023-04-09T10:43:01.554Z,24.00
2023-04-09T10:46:06.773Z,25.75
2023-04-09T10:49:17.995Z,26.75
2023-04-09T10:52:31.485Z,27.00
2023-04-09T10:55:38.613Z,26.75
2023-04-09T10:58:41.852Z,26.40
2023-04-09T11:01:54.129Z,25.40
2023-04-09T11:05:16.626Z,27.00
2023-04-09T11:08:22.090Z,24.00
2023-04-09T11:11:27.709Z,26.00
2023-04-09T11:14:31.922Z,27.40
2023-04-09T11:17:37.757Z,26.50
2023-04-09T11:20:42.588Z,28.40
2023-04-09T11:23:53.779Z,27.00
2023-04-09T11:26:57.782Z,26.00
2023-04-09T11:30:01.022Z,23.40
2023-04-09T11:33:05.966Z,21.00
2023-04-09T11:36:16.507Z,20.50
2023-04-09T11:39:19.844Z,23.40
2023-04-09T11:42:23.158Z,22.60
2023-04-09T11:45:28.976Z,22.40
2023-04-09T11:48:32.382Z,23.00
2023-04-09T11:51:37.953Z,23.75
2023-04-09T11:54:41.614Z,22.80
2023-04-09T11:57:47.076Z,23.20
2023-04-09T12:00:50.920Z,23.80
2023-04-09T12:03:55.306Z,25.60
2023-04-09T12:07:00.688Z,27.00
2023-04-09T12:10:08.107Z,22.00
2023-04-09T12:13:11.935Z,23.00
2023-04-09T12:16:20.767Z,21.40
2023-04-09T12:19:28.094Z,25.20
2023-04-09T12:22:32.824Z,26.40
2023-04-09T12:25:38.478Z,26.25
2023-04-09T12:28:41.791Z,25.60
2023-04-09T12:31:45.633Z,25.00
2023-04-09T12:34:49.986Z,24.00
2023-04-09T12:37:54.704Z,25.00
2023-04-09T12:40:58.251Z,26.00
2023-04-09T12:44:01.487Z,25.00
2023-04-09T12:47:04.808Z,22.00
2023-04-09T12:50:10.271Z,23.00
2023-04-09T12:53:14.953Z,18.80
2023-04-09T12:56:18.198Z,25.00
2023-04-09T12:59:21.386Z,21.60
2023-04-09T13:02:25.099Z,22.25
2023-04-09T13:05:28.933Z,27.20
2023-04-09T13:08:33.645Z,24.25
2023-04-09T13:11:36.975Z,23.67
2023-04-09T13:14:41.035Z,26.00
2023-04-09T13:17:44.250Z,23.60
2023-04-09T13:20:47.614Z,23.75
2023-04-09T13:23:52.471Z,24.60
2023-04-09T13:26:55.906Z,24.80
2023-04-09T13:29:59.782Z,25.00
2023-04-09T13:33:03.093Z,25.00
2023-04-09T13:36:07.114Z,22.50
2023-04-09T13:39:11.779Z,25.00
2023-04-09T13:42:16.822Z,27.00
2023-04-09T13:45:21.089Z,23.00
2023-04-09T13:48:25.446Z,22.20
2023-04-09T13:51:29.817Z,21.00
2023-04-09T13:54:34.798Z,21.00
2023-04-09T13:57:38.046Z,22.60
2023-04-09T14:00:41.428Z,21.00
2023-04-09T14:03:44.952Z,21.00
2023-04-09T14:06:48.322Z,23.00
2023-04-09T14:09:52.952Z,20.00
2023-04-09T14:12:56.399Z,22.50
2023-04-09T14:16:00.536Z,22.00
2023-04-09T14:19:03.990Z,18.20
2023-04-09T14:22:08.839Z,20.60
2023-04-09T14:25:13.652Z,20.00
2023-04-09T14:28:16.954Z,19.60
2023-04-09T14:31:22.143Z,21.00
2023-04-09T14:34:25.499Z,21.40
2023-04-09T14:37:29.339Z,22.00
2023-04-09T14:40:33.943Z,21.40
2023-04-09T14:43:37.120Z,23.60
2023-04-09T14:46:40.501Z,22.00
2023-04-09T14:49:43.884Z,20.00
2023-04-09T14:52:48.180Z,21.50
2023-04-09T14:55:52.809Z,22.80
2023-04-09T14:58:56.188Z,22.00
2023-04-09T15:01:59.664Z,24.40
2023-04-09T15:05:03.638Z,20.00
2023-04-09T15:08:07.123Z,23.60
2023-04-09T15:11:16.324Z,26.00
2023-04-09T15:14:20.474Z,19.00
2023-04-09T15:17:23.771Z,20.60
2023-04-09T15:20:26.995Z,22.60
2023-04-09T15:23:30.403Z,24.50
2023-04-09T15:26:36.144Z,20.00
2023-04-09T15:29:39.505Z,24.40
2023-04-09T15:32:42.761Z,21.50
2023-04-09T15:35:46.094Z,20.50
2023-04-09T15:38:49.626Z,22.60
2023-04-09T15:41:54.922Z,23.00
2023-04-09T15:44:58.152Z,19.50
2023-04-09T15:48:01.746Z,20.00
2023-04-09T15:51:05.955Z,23.60
2023-04-09T15:54:09.220Z,20.80
2023-04-09T15:57:14.449Z,24.25
2023-04-09T16:00:17.707Z,23.00
2023-04-09T16:03:21.064Z,20.60
2023-04-09T16:06:24.407Z,22.80
2023-04-09T16:09:27.631Z,22.75
2023-04-09T16:12:32.313Z,25.00
2023-04-09T16:15:36.103Z,23.00
2023-04-09T16:18:39.711Z,22.60
2023-04-09T16:21:44.659Z,17.00
2023-04-09T16:24:48.027Z,24.25
2023-04-09T16:27:52.841Z,23.20
2023-04-09T16:30:56.111Z,25.60
2023-04-09T16:33:59.278Z,23.00
2023-04-09T16:37:02.544Z,24.40
2023-04-09T16:40:07.147Z,25.50
2023-04-09T16:43:11.791Z,27.40
2023-04-09T16:46:15.070Z,21.60
2023-04-09T16:49:18.424Z,19.20
2023-04-09T16:52:21.846Z,23.60
2023-04-09T16:55:25.172Z,23.00
2023-04-09T16:58:30.069Z,23.00
2023-04-09T17:01:33.471Z,24.00
2023-04-09T17:04:38.270Z,21.00
2023-04-09T17:07:41.888Z,24.00
2023-04-09T17:10:45.732Z,24.40
2023-04-09T17:13:50.524Z,20.60
2023-04-09T17:16:54.061Z,24.00
2023-04-09T17:19:58.657Z,22.60
2023-04-09T17:23:02.272Z,25.00
2023-04-09T17:26:06.007Z,25.00
2023-04-09T17:29:10.589Z,21.00
2023-04-09T17:32:13.814Z,25.80
2023-04-09T17:35:17.143Z,25.00
2023-04-09T17:38:21.723Z,25.50
2023-04-09T17:41:25.222Z,23.60
2023-04-09T17:44:31.447Z,26.00
2023-04-09T17:47:34.693Z,25.40
2023-04-09T17:50:38.982Z,22.60
2023-04-09T17:53:42.313Z,28.75
2023-04-09T17:56:45.866Z,27.00
2023-04-09T17:59:50.642Z,26.40
2023-04-09T18:02:54.385Z,27.00
2023-04-09T18:05:57.913Z,27.60
2023-04-09T18:09:01.471Z,23.40
2023-04-09T18:12:04.851Z,24.00
2023-04-09T18:15:10.562Z,26.40
2023-04-09T18:18:13.877Z,29.60
2023-04-09T18:21:18.146Z,25.25
2023-04-09T18:24:21.845Z,26.00
2023-04-09T18:27:25.085Z,25.00
2023-04-09T18:30:31.258Z,28.00
2023-04-09T18:33:34.507Z,27.00
2023-04-09T18:36:37.800Z,25.00
2023-04-09T18:39:41.494Z,28.75
2023-04-09T18:42:44.921Z,26.80
2023-04-09T18:45:50.082Z,27.00
2023-04-09T18:48:53.472Z,29.00
2023-04-09T18:51:57.446Z,28.75
2023-04-09T18:55:00.736Z,27.00
2023-04-09T18:58:05.618Z,28.80
2023-04-09T19:01:13.710Z,28.60
2023-04-09T19:04:16.972Z,31.80
2023-04-09T19:07:20.997Z,24.80
2023-04-09T19:10:24.230Z,27.00
2023-04-09T19:13:27.429Z,30.00
2023-04-09T19:16:32.058Z,28.00
2023-04-09T19:19:36.071Z,30.00
2023-04-09T19:22:39.320Z,29.50
2023-04-09T19:25:42.929Z,29.80
2023-04-09T19:28:46.935Z,31.00
2023-04-09T19:31:51.577Z,30.00
2023-04-09T19:34:54.807Z,26.25
2023-04-09T19:37:58.032Z,32.00
2023-04-09T19:41:01.534Z,28.00
2023-04-09T19:44:07.455Z,26.00
2023-04-09T19:47:12.077Z,25.00
2023-04-09T19:50:15.997Z,26.00
2023-04-09T19:53:19.637Z,27.80
2023-04-09T19:56:23.484Z,26.00
2023-04-09T19:59:27.349Z,29.67
2023-04-09T20:02:32.754Z,29.00
2023-04-09T20:05:36.116Z,24.75
2023-04-09T20:08:39.514Z,28.00
2023-04-09T20:11:43.308Z,27.75
2023-04-09T20:14:47.198Z,30.40
2023-04-09T20:17:52.833Z,24.60
2023-04-09T20:20:56.501Z,26.00
2023-04-09T20:23:59.742Z,27.00
2023-04-09T20:27:03.913Z,22.40
2023-04-09T20:30:08.325Z,28.40
2023-04-09T20:33:12.936Z,26.40
2023-04-09T20:36:17.430Z,29.80
2023-04-09T20:39:21.791Z,27.00
2023-04-09T20:42:25.303Z,27.00
2023-04-09T20:45:28.600Z,33.00
2023-04-09T20:48:33.231Z,31.40
2023-04-09T20:51:37.285Z,30.00
2023-04-09T20:54:40.559Z,30.00
2023-04-09T20:57:43.959Z,32.00
2023-04-09T21:00:47.206Z,28.40
2023-04-09T21:03:52.281Z,32.25
2023-04-09T21:06:55.894Z,32.20
2023-04-09T21:10:00.827Z,35.00
2023-04-09T21:13:09.745Z,30.25
2023-04-09T21:16:17.544Z,31.80
2023-04-09T21:19:22.292Z,32.60
2023-04-09T21:22:26.801Z,30.00
2023-04-09T21:25:30.446Z,32.80
2023-04-09T21:28:33.773Z,33.00
2023-04-09T21:31:37.067Z,32.80
2023-04-09T21:34:41.698Z,30.00
2023-04-09T21:37:44.947Z,32.00
2023-04-09T21:40:48.207Z,31.00
2023-04-09T21:43:51.856Z,30.00
2023-04-09T21:46:55.088Z,31.00
2023-04-09T21:49:59.824Z,28.60
2023-04-09T21:53:04.193Z,32.00
2023-04-09T21:56:08.322Z,34.00
2023-04-09T21:59:11.551Z,32.80
2023-04-09T22:02:15.520Z,33.00
2023-04-09T22:05:20.224Z,35.00
2023-04-09T22:08:23.448Z,35.00
2023-04-09T22:11:28.641Z,34.60
2023-04-09T22:14:33.728Z,38.40
2023-04-09T22:17:37.028Z,32.00
2023-04-09T22:20:41.854Z,35.40
2023-04-09T22:23:45.441Z,37.60
2023-04-09T22:26:48.681Z,35.75
2023-04-09T22:29:51.949Z,37.60
2023-04-09T22:32:55.439Z,39.40
2023-04-09T22:36:00.438Z,39.40
2023-04-09T22:39:03.792Z,39.60
2023-04-09T22:42:07.085Z,40.00
2023-04-09T22:45:11.827Z,38.00
2023-04-09T22:48:15.016Z,37.75
2023-04-09T22:51:19.689Z,43.00
2023-04-09T22:54:22.968Z,39.00
2023-04-09T22:57:26.460Z,42.00
2023-04-09T23:00:29.739Z,39.00
2023-04-09T23:03:33.202Z,40.25
2023-04-09T23:06:38.365Z,38.40
2023-04-09T23:09:41.602Z,44.00
2023-04-09T23:12:44.975Z,39.60
2023-04-09T23:15:48.227Z,40.00
2023-04-09T23:18:51.682Z,39.40
2023-04-09T23:21:56.341Z,39.00
2023-04-09T23:24:59.641Z,40.40
2023-04-09T23:28:02.848Z,39.40
2023-04-09T23:31:06.789Z,38.00
2023-04-09T23:34:10.093Z,42.33
2023-04-09T23:37:14.829Z,39.50
2023-04-09T23:40:18.994Z,37.60
2023-04-09T23:43:22.207Z,39.60
2023-04-09T23:46:26.260Z,39.00
2023-04-09T23:49:29.576Z,39.67
2023-04-09T23:52:35.609Z,41.00
2023-04-09T23:55:41.212Z,39.00
2023-04-09T23:58:44.600Z,40.00
